Main page
METAR-TAF:

METAR-TAF

Airports :

Tangier Ibn Battouta Airport

Tangier, Morocco

latitude: 35-44N, longitude: 005-54W, elevation: 19 m

Current weather observation

The report was made 29 minutes ago, at 12:30 UTC
Wind 21 kt from the East
Temperature 32°C
Humidity 36%
Pressure 1013 hPa
Visibility 10 km or more
no clouds below 1500 m and no cumulonimbus

METAR: GMTT 201230Z 09021KT CAVOK 32/15 Q1013 NOSIG

Time: 13:59 (12:59 UTC)

Forecast

The report was made 1 hour and 59 minutes ago, at 11:00 UTC
Forecast valid from 20 at 12 UTC to 21 at 18 UTC
Wind 24 kt from the East
Visibility 10 km or more
no clouds below 1500 m and no cumulonimbus
Becoming
from 20 at 22 UTC to 21 at 02 UTC
Wind 14 kt from the East

TAF: GMTT 201100Z 2012/2118 09024KT CAVOK BECMG 2022/2102 09014KT

Weather observations and forecasts of more than 4000 airports (METAR and TAF reports).

The available stations are represented by yellow and red dots on the map.

Hover mouse over dot to see the name of the station.

Then click to see weather observations and forecasts.

To change the map : click on the green buttons with a black cross to zoom in, on the green button with a dash to zoom out, or on the green arrows for adjacent maps.


METAR-TAF: